sensor_id;sensor_type;location;lat;lon;timestamp;pressure;altitude;pressure_sealevel;temperature;humidity
18813;BME280;9534;51.140;6.296;2023-04-28T00:03:08;100236.47;;;9.30;100.00
18813;BME280;9534;51.140;6.296;2023-04-28T00:07:11;100240.25;;;9.22;100.00
18813;BME280;9534;51.140;6.296;2023-04-28T00:11:17;100236.69;;;9.28;100.00
18813;BME280;9534;51.140;6.296;2023-04-28T00:15:20;100242.34;;;9.33;100.00
18813;BME280;9534;51.140;6.296;2023-04-28T00:19:23;100236.47;;;9.36;100.00
18813;BME280;9534;51.140;6.296;2023-04-28T00:23:27;100229.31;;;9.29;100.00
18813;BME280;9534;51.140;6.296;2023-04-28T00:27:31;100219.25;;;9.29;100.00
18813;BME280;9534;51.140;6.296;2023-04-28T00:31:34;100220.72;;;9.25;100.00
18813;BME280;9534;51.140;6.296;2023-04-28T00:35:37;100213.59;;;9.24;100.00
18813;BME280;9534;51.140;6.296;2023-04-28T00:39:40;100218.00;;;9.25;100.00
18813;BME280;9534;51.140;6.296;2023-04-28T00:43:47;100217.16;;;9.25;100.00
18813;BME280;9534;51.140;6.296;2023-04-28T00:47:51;100218.00;;;9.25;100.00
18813;BME280;9534;51.140;6.296;2023-04-28T00:51:54;100212.97;;;9.22;100.00
18813;BME280;9534;51.140;6.296;2023-04-28T00:55:58;100202.03;;;9.16;100.00
18813;BME280;9534;51.140;6.296;2023-04-28T01:00:03;100197.41;;;9.10;100.00
18813;BME280;9534;51.140;6.296;2023-04-28T01:04:07;100198.72;;;9.01;100.00
18813;BME280;9534;51.140;6.296;2023-04-28T01:08:11;100204.16;;;8.94;100.00
18813;BME280;9534;51.140;6.296;2023-04-28T01:12:14;100218.03;;;8.93;100.00
18813;BME280;9534;51.140;6.296;2023-04-28T01:16:22;100216.53;;;8.90;100.00
18813;BME280;9534;51.140;6.296;2023-04-28T01:20:27;100220.94;;;8.91;100.00
18813;BME280;9534;51.140;6.296;2023-04-28T01:24:32;100227.44;;;8.90;100.00
18813;BME280;9534;51.140;6.296;2023-04-28T01:28:38;100236.06;;;8.87;100.00
18813;BME280;9534;51.140;6.296;2023-04-28T01:32:41;100226.19;;;8.86;100.00
18813;BME280;9534;51.140;6.296;2023-04-28T01:36:44;100231.88;;;8.85;100.00
18813;BME280;9534;51.140;6.296;2023-04-28T01:40:49;100229.34;;;8.83;100.00
18813;BME280;9534;51.140;6.296;2023-04-28T01:44:52;100210.88;;;8.79;100.00
18813;BME280;9534;51.140;6.296;2023-04-28T01:48:55;100199.31;;;8.83;100.00
18813;BME280;9534;51.140;6.296;2023-04-28T01:52:57;100220.94;;;8.78;100.00
18813;BME280;9534;51.140;6.296;2023-04-28T01:57:02;100210.25;;;8.77;100.00
18813;BME280;9534;51.140;6.296;2023-04-28T02:01:06;100201.66;;;8.80;100.00
18813;BME280;9534;51.140;6.296;2023-04-28T02:05:12;100223.06;;;8.83;100.00
18813;BME280;9534;51.140;6.296;2023-04-28T02:09:14;100216.75;;;8.89;100.00
18813;BME280;9534;51.140;6.296;2023-04-28T02:13:19;100212.16;;;8.96;100.00
18813;BME280;9534;51.140;6.296;2023-04-28T02:17:22;100209.81;;;8.99;100.00
18813;BME280;9534;51.140;6.296;2023-04-28T02:21:24;100212.34;;;9.01;100.00
18813;BME280;9534;51.140;6.296;2023-04-28T02:25:28;100215.88;;;9.08;100.00
18813;BME280;9534;51.140;6.296;2023-04-28T02:29:32;100209.59;;;9.07;100.00
18813;BME280;9534;51.140;6.296;2023-04-28T02:33:35;100209.19;;;9.10;100.00
18813;BME280;9534;51.140;6.296;2023-04-28T02:37:38;100212.34;;;9.07;100.00
18813;BME280;9534;51.140;6.296;2023-04-28T02:41:41;100208.34;;;9.10;100.00
18813;BME280;9534;51.140;6.296;2023-04-28T02:45:46;100217.38;;;9.10;100.00
18813;BME280;9534;51.140;6.296;2023-04-28T02:49:48;100221.78;;;9.11;100.00
18813;BME280;9534;51.140;6.296;2023-04-28T02:53:51;100216.94;;;9.20;100.00
18813;BME280;9534;51.140;6.296;2023-04-28T02:57:54;100197.22;;;9.24;100.00
18813;BME280;9534;51.140;6.296;2023-04-28T03:01:59;100182.31;;;9.20;100.00
18813;BME280;9534;51.140;6.296;2023-04-28T03:06:02;100173.88;;;9.22;100.00
18813;BME280;9534;51.140;6.296;2023-04-28T03:10:05;100162.53;;;9.31;100.00
18813;BME280;9534;51.140;6.296;2023-04-28T03:14:08;100142.78;;;9.36;100.00
18813;BME280;9534;51.140;6.296;2023-04-28T03:18:13;100141.25;;;9.46;100.00
18813;BME280;9534;51.140;6.296;2023-04-28T03:22:16;100138.28;;;9.54;100.00
18813;BME280;9534;51.140;6.296;2023-04-28T03:26:18;100121.28;;;9.59;100.00
18813;BME280;9534;51.140;6.296;2023-04-28T03:30:23;100127.13;;;9.62;100.00
18813;BME280;9534;51.140;6.296;2023-04-28T03:34:28;100117.88;;;9.63;100.00
18813;BME280;9534;51.140;6.296;2023-04-28T03:38:31;100095.56;;;9.73;100.00
18813;BME280;9534;51.140;6.296;2023-04-28T03:42:35;100068.19;;;9.79;100.00
18813;BME280;9534;51.140;6.296;2023-04-28T03:46:42;100084.59;;;9.79;100.00
18813;BME280;9534;51.140;6.296;2023-04-28T03:50:47;100077.81;;;9.88;100.00
18813;BME280;9534;51.140;6.296;2023-04-28T03:54:51;100080.69;;;9.99;100.00
18813;BME280;9534;51.140;6.296;2023-04-28T03:58:54;100080.66;;;10.06;100.00
18813;BME280;9534;51.140;6.296;2023-04-28T04:02:57;100094.47;;;10.17;100.00
18813;BME280;9534;51.140;6.296;2023-04-28T04:07:01;100098.25;;;10.23;100.00
18813;BME280;9534;51.140;6.296;2023-04-28T04:11:05;100098.25;;;10.23;100.00
18813;BME280;9534;51.140;6.296;2023-04-28T04:15:08;100097.63;;;10.21;100.00
18813;BME280;9534;51.140;6.296;2023-04-28T04:19:12;100102.22;;;10.27;100.00
18813;BME280;9534;51.140;6.296;2023-04-28T04:23:18;100105.38;;;10.24;100.00
18813;BME280;9534;51.140;6.296;2023-04-28T04:27:22;100102.84;;;10.29;100.00
18813;BME280;9534;51.140;6.296;2023-04-28T04:31:25;100100.75;;;10.24;100.00
18813;BME280;9534;51.140;6.296;2023-04-28T04:35:28;100102.22;;;10.27;100.00
18813;BME280;9534;51.140;6.296;2023-04-28T04:39:33;100100.31;;;10.27;100.00
18813;BME280;9534;51.140;6.296;2023-04-28T04:43:37;100110.41;;;10.27;100.00
18813;BME280;9534;51.140;6.296;2023-04-28T04:47:40;100110.84;;;10.24;100.00
18813;BME280;9534;51.140;6.296;2023-04-28T04:51:45;100112.75;;;10.23;100.00
18813;BME280;9534;51.140;6.296;2023-04-28T04:55:50;100112.34;;;10.20;100.00
18813;BME280;9534;51.140;6.296;2023-04-28T04:59:53;100111.75;;;10.18;100.00
18813;BME280;9534;51.140;6.296;2023-04-28T05:03:56;100114.47;;;10.18;100.00
18813;BME280;9534;51.140;6.296;2023-04-28T05:07:59;100103.81;;;10.10;100.00
18813;BME280;9534;51.140;6.296;2023-04-28T05:12:04;100112.34;;;10.20;100.00
18813;BME280;9534;51.140;6.296;2023-04-28T05:16:07;100114.25;;;10.19;100.00
18813;BME280;9534;51.140;6.296;2023-04-28T05:20:20;100114.03;;;10.21;100.00
18813;BME280;9534;51.140;6.296;2023-04-28T05:24:23;100121.97;;;10.29;100.00
18813;BME280;9534;51.140;6.296;2023-04-28T05:28:27;100133.06;;;10.34;100.00
18813;BME280;9534;51.140;6.296;2023-04-28T05:32:32;100120.84;;;10.36;100.00
18813;BME280;9534;51.140;6.296;2023-04-28T05:36:35;100103.59;;;10.36;100.00
18813;BME280;9534;51.140;6.296;2023-04-28T05:40:42;100114.25;;;10.44;100.00
18813;BME280;9534;51.140;6.296;2023-04-28T05:44:47;100111.69;;;10.49;100.00
18813;BME280;9534;51.140;6.296;2023-04-28T05:48:50;100103.66;;;10.54;100.00
18813;BME280;9534;51.140;6.296;2023-04-28T05:52:53;100107.63;;;10.58;100.00
18813;BME280;9534;51.140;6.296;2023-04-28T05:56:57;100102.56;;;10.61;100.00
18813;BME280;9534;51.140;6.296;2023-04-28T06:01:04;100117.84;;;10.69;100.00
18813;BME280;9534;51.140;6.296;2023-04-28T06:05:07;100113.28;;;10.63;100.00
18813;BME280;9534;51.140;6.296;2023-04-28T06:09:11;100115.13;;;10.69;100.00
18813;BME280;9534;51.140;6.296;2023-04-28T06:13:14;100115.47;;;10.79;100.00
18813;BME280;9534;51.140;6.296;2023-04-28T06:17:18;100114.13;;;10.88;100.00
18813;BME280;9534;51.140;6.296;2023-04-28T06:21:22;100098.47;;;10.95;100.00
18813;BME280;9534;51.140;6.296;2023-04-28T06:25:25;100076.88;;;11.05;100.00
18813;BME280;9534;51.140;6.296;2023-04-28T06:29:28;100065.03;;;11.10;100.00
18813;BME280;9534;51.140;6.296;2023-04-28T06:33:32;100047.66;;;11.16;100.00
18813;BME280;9534;51.140;6.296;2023-04-28T06:37:35;100058.31;;;11.07;100.00
18813;BME280;9534;51.140;6.296;2023-04-28T06:41:38;100057.41;;;10.95;100.00
18813;BME280;9534;51.140;6.296;2023-04-28T06:45:43;100081.44;;;10.93;100.00
18813;BME280;9534;51.140;6.296;2023-04-28T06:49:48;100060.47;;;11.05;100.00
18813;BME280;9534;51.140;6.296;2023-04-28T06:53:51;100052.16;;;11.11;100.00
18813;BME280;9534;51.140;6.296;2023-04-28T06:57:54;100066.22;;;11.50;100.00
18813;BME280;9534;51.140;6.296;2023-04-28T07:01:57;100050.53;;;11.75;100.00
18813;BME280;9534;51.140;6.296;2023-04-28T07:06:01;100047.94;;;11.80;100.00
18813;BME280;9534;51.140;6.296;2023-04-28T07:10:05;100042.59;;;11.85;100.00
18813;BME280;9534;51.140;6.296;2023-04-28T07:14:08;100027.25;;;11.66;100.00
18813;BME280;9534;51.140;6.296;2023-04-28T07:18:12;100038.22;;;11.66;100.00
18813;BME280;9534;51.140;6.296;2023-04-28T07:22:19;100046.66;;;11.65;100.00
18813;BME280;9534;51.140;6.296;2023-04-28T07:26:23;100043.84;;;11.71;100.00
18813;BME280;9534;51.140;6.296;2023-04-28T07:30:29;100039.56;;;11.57;100.00
18813;BME280;9534;51.140;6.296;2023-04-28T07:34:32;100053.28;;;11.57;100.00
18813;BME280;9534;51.140;6.296;2023-04-28T07:38:37;100046.59;;;11.71;100.00
18813;BME280;9534;51.140;6.296;2023-04-28T07:42:41;100054.94;;;11.76;100.00
18813;BME280;9534;51.140;6.296;2023-04-28T07:46:44;100054.03;;;11.82;100.00
18813;BME280;9534;51.140;6.296;2023-04-28T07:50:47;100056.97;;;12.10;100.00
18813;BME280;9534;51.140;6.296;2023-04-28T07:54:51;100063.72;;;12.37;100.00
18813;BME280;9534;51.140;6.296;2023-04-28T07:58:54;100059.56;;;12.57;100.00
18813;BME280;9534;51.140;6.296;2023-04-28T08:02:57;100046.00;;;12.74;100.00
18813;BME280;9534;51.140;6.296;2023-04-28T08:07:05;100036.91;;;13.08;100.00
18813;BME280;9534;51.140;6.296;2023-04-28T08:11:10;100036.28;;;13.29;100.00
18813;BME280;9534;51.140;6.296;2023-04-28T08:15:16;100022.88;;;13.99;100.00
18813;BME280;9534;51.140;6.296;2023-04-28T08:19:20;100014.91;;;13.86;100.00
18813;BME280;9534;51.140;6.296;2023-04-28T08:23:24;100008.53;;;13.97;100.00
18813;BME280;9534;51.140;6.296;2023-04-28T08:27:30;100021.69;;;13.40;100.00
18813;BME280;9534;51.140;6.296;2023-04-28T08:31:34;100026.63;;;12.92;100.00
18813;BME280;9534;51.140;6.296;2023-04-28T08:35:37;100060.44;;;12.81;100.00
18813;BME280;9534;51.140;6.296;2023-04-28T08:39:40;100083.81;;;12.83;100.00
18813;BME280;9534;51.140;6.296;2023-04-28T08:43:45;100098.63;;;12.94;100.00
18813;BME280;9534;51.140;6.296;2023-04-28T08:47:48;100112.63;;;13.04;100.00
18813;BME280;9534;51.140;6.296;2023-04-28T08:51:54;100117.50;;;12.90;100.00
18813;BME280;9534;51.140;6.296;2023-04-28T08:55:58;100120.13;;;12.97;100.00
18813;BME280;9534;51.140;6.296;2023-04-28T09:00:04;100128.28;;;13.15;100.00
18813;BME280;9534;51.140;6.296;2023-04-28T09:04:07;100124.34;;;13.11;100.00
18813;BME280;9534;51.140;6.296;2023-04-28T09:08:15;100139.28;;;13.15;100.00
18813;BME280;9534;51.140;6.296;2023-04-28T09:12:18;100143.22;;;13.42;100.00
18813;BME280;9534;51.140;6.296;2023-04-28T09:16:26;100138.78;;;13.41;100.00
18813;BME280;9534;51.140;6.296;2023-04-28T09:20:43;100135.22;;;13.29;100.00
18813;BME280;9534;51.140;6.296;2023-04-28T09:24:46;100137.09;;;13.28;100.00
18813;BME280;9534;51.140;6.296;2023-04-28T09:28:49;100143.34;;;13.47;100.00
18813;BME280;9534;51.140;6.296;2023-04-28T09:33:04;100142.38;;;13.53;100.00
18813;BME280;9534;51.140;6.296;2023-04-28T09:37:13;100143.06;;;13.59;100.00
18813;BME280;9534;51.140;6.296;2023-04-28T09:41:16;100146.13;;;13.86;100.00
18813;BME280;9534;51.140;6.296;2023-04-28T09:45:19;100139.81;;;14.13;100.00
18813;BME280;9534;51.140;6.296;2023-04-28T09:49:23;100150.41;;;14.33;100.00
18813;BME280;9534;51.140;6.296;2023-04-28T09:53:27;100153.41;;;14.31;100.00
18813;BME280;9534;51.140;6.296;2023-04-28T09:57:31;100135.00;;;14.20;100.00
18813;BME280;9534;51.140;6.296;2023-04-28T10:01:36;100141.81;;;14.18;100.00
18813;BME280;9534;51.140;6.296;2023-04-28T10:05:41;100137.72;;;14.32;100.00
18813;BME280;9534;51.140;6.296;2023-04-28T10:09:45;100134.44;;;14.46;100.00
18813;BME280;9534;51.140;6.296;2023-04-28T10:13:51;100131.94;;;14.61;100.00
18813;BME280;9534;51.140;6.296;2023-04-28T10:17:54;100123.75;;;14.66;100.00
18813;BME280;9534;51.140;6.296;2023-04-28T10:22:02;100101.56;;;14.89;100.00
18813;BME280;9534;51.140;6.296;2023-04-28T10:26:08;100079.50;;;15.81;100.00
18813;BME280;9534;51.140;6.296;2023-04-28T10:30:13;100050.69;;;15.94;100.00
18813;BME280;9534;51.140;6.296;2023-04-28T10:34:22;100036.50;;;15.85;100.00
18813;BME280;9534;51.140;6.296;2023-04-28T10:38:34;100025.25;;;15.92;100.00
18813;BME280;9534;51.140;6.296;2023-04-28T10:42:50;100021.13;;;15.68;100.00
18813;BME280;9534;51.140;6.296;2023-04-28T10:46:58;100026.06;;;15.66;100.00
18813;BME280;9534;51.140;6.296;2023-04-28T10:55:29;100010.16;;;16.52;100.00
18813;BME280;9534;51.140;6.296;2023-04-28T10:59:34;99993.63;;;16.98;100.00
18813;BME280;9534;51.140;6.296;2023-04-28T11:03:39;99989.06;;;17.80;100.00
18813;BME280;9534;51.140;6.296;2023-04-28T11:12:12;99963.97;;;17.40;100.00
18813;BME280;9534;51.140;6.296;2023-04-28T11:16:17;99963.91;;;17.30;100.00
18813;BME280;9534;51.140;6.296;2023-04-28T11:20:22;99962.66;;;17.52;100.00
18813;BME280;9534;51.140;6.296;2023-04-28T11:24:27;99952.97;;;17.50;100.00
18813;BME280;9534;51.140;6.296;2023-04-28T11:28:32;99954.56;;;17.41;100.00
18813;BME280;9534;51.140;6.296;2023-04-28T11:32:35;99953.94;;;17.24;100.00
18813;BME280;9534;51.140;6.296;2023-04-28T11:36:41;99953.03;;;17.70;100.00
18813;BME280;9534;51.140;6.296;2023-04-28T11:40:54;99967.75;;;17.95;100.00
18813;BME280;9534;51.140;6.296;2023-04-28T11:44:59;99952.03;;;18.65;100.00
18813;BME280;9534;51.140;6.296;2023-04-28T11:49:03;99956.91;;;19.18;100.00
18813;BME280;9534;51.140;6.296;2023-04-28T11:53:06;99950.91;;;19.60;100.00
18813;BME280;9534;51.140;6.296;2023-04-28T11:57:15;99945.94;;;19.57;100.00
18813;BME280;9534;51.140;6.296;2023-04-28T12:01:20;99969.59;;;21.03;100.00
18813;BME280;9534;51.140;6.296;2023-04-28T12:05:24;99947.63;;;20.01;100.00
18813;BME280;9534;51.140;6.296;2023-04-28T12:09:27;99943.50;;;19.93;100.00
18813;BME280;9534;51.140;6.296;2023-04-28T12:13:33;99951.63;;;21.18;100.00
18813;BME280;9534;51.140;6.296;2023-04-28T12:17:39;99953.38;;;21.10;100.00
18813;BME280;9534;51.140;6.296;2023-04-28T12:21:57;99951.50;;;22.12;100.00
18813;BME280;9534;51.140;6.296;2023-04-28T12:26:02;99945.56;;;22.32;100.00
18813;BME280;9534;51.140;6.296;2023-04-28T12:30:24;99942.28;;;21.51;100.00
18813;BME280;9534;51.140;6.296;2023-04-28T12:34:29;99933.41;;;20.46;100.00
18813;BME280;9534;51.140;6.296;2023-04-28T12:38:35;99928.47;;;20.38;100.00
18813;BME280;9534;51.140;6.296;2023-04-28T12:42:39;99924.63;;;20.34;100.00
18813;BME280;9534;51.140;6.296;2023-04-28T12:46:42;99920.28;;;20.23;100.00
18813;BME280;9534;51.140;6.296;2023-04-28T12:50:46;99926.63;;;20.23;100.00
18813;BME280;9534;51.140;6.296;2023-04-28T12:54:49;99915.13;;;20.40;100.00
18813;BME280;9534;51.140;6.296;2023-04-28T12:58:52;99914.31;;;20.63;100.00
18813;BME280;9534;51.140;6.296;2023-04-28T13:02:55;99920.44;;;20.93;100.00
18813;BME280;9534;51.140;6.296;2023-04-28T13:07:02;99931.44;;;20.46;100.00
18813;BME280;9534;51.140;6.296;2023-04-28T13:11:08;99915.94;;;20.02;100.00
18813;BME280;9534;51.140;6.296;2023-04-28T13:15:23;99920.56;;;20.16;100.00
18813;BME280;9534;51.140;6.296;2023-04-28T13:19:26;99925.13;;;20.41;100.00
18813;BME280;9534;51.140;6.296;2023-04-28T13:23:33;99942.84;;;21.07;100.00
18813;BME280;9534;51.140;6.296;2023-04-28T13:27:36;99920.69;;;20.97;100.00
18813;BME280;9534;51.140;6.296;2023-04-28T13:31:41;99913.38;;;20.49;100.00
18813;BME280;9534;51.140;6.296;2023-04-28T13:35:45;99905.41;;;19.99;100.00
18813;BME280;9534;51.140;6.296;2023-04-28T13:39:49;99900.75;;;19.46;100.00
18813;BME280;9534;51.140;6.296;2023-04-28T13:43:52;99904.13;;;19.43;100.00
18813;BME280;9534;51.140;6.296;2023-04-28T13:47:56;99918.63;;;20.79;100.00
18813;BME280;9534;51.140;6.296;2023-04-28T13:51:59;99913.56;;;20.29;100.00
18813;BME280;9534;51.140;6.296;2023-04-28T13:56:06;99917.00;;;19.68;100.00
18813;BME280;9534;51.140;6.296;2023-04-28T14:00:09;99937.09;;;19.98;100.00
18813;BME280;9534;51.140;6.296;2023-04-28T14:04:13;99902.44;;;19.42;100.00
18813;BME280;9534;51.140;6.296;2023-04-28T14:08:16;99920.66;;;19.63;100.00
18813;BME280;9534;51.140;6.296;2023-04-28T14:12:22;99918.41;;;19.65;100.00
18813;BME280;9534;51.140;6.296;2023-04-28T14:16:25;99918.72;;;19.59;100.00
18813;BME280;9534;51.140;6.296;2023-04-28T14:20:29;99923.00;;;20.28;100.00
18813;BME280;9534;51.140;6.296;2023-04-28T14:24:32;99937.75;;;19.80;100.00
18813;BME280;9534;51.140;6.296;2023-04-28T14:28:36;99918.94;;;19.67;100.00
18813;BME280;9534;51.140;6.296;2023-04-28T14:32:39;99943.59;;;19.79;100.00
18813;BME280;9534;51.140;6.296;2023-04-28T14:36:42;99952.38;;;19.52;100.00
18813;BME280;9534;51.140;6.296;2023-04-28T14:40:45;99962.19;;;19.15;100.00
18813;BME280;9534;51.140;6.296;2023-04-28T14:44:50;99961.94;;;18.91;100.00
18813;BME280;9534;51.140;6.296;2023-04-28T14:48:55;99959.50;;;18.60;100.00
18813;BME280;9534;51.140;6.296;2023-04-28T14:52:58;99977.78;;;18.71;100.00
18813;BME280;9534;51.140;6.296;2023-04-28T14:57:06;99956.16;;;18.78;100.00
18813;BME280;9534;51.140;6.296;2023-04-28T15:01:10;99967.25;;;19.66;100.00
18813;BME280;9534;51.140;6.296;2023-04-28T15:05:13;99993.00;;;18.19;100.00
18813;BME280;9534;51.140;6.296;2023-04-28T15:09:16;100017.88;;;17.33;100.00
18813;BME280;9534;51.140;6.296;2023-04-28T15:13:19;99996.94;;;16.95;100.00
18813;BME280;9534;51.140;6.296;2023-04-28T15:17:24;100011.31;;;16.97;100.00
18813;BME280;9534;51.140;6.296;2023-04-28T15:21:27;100003.09;;;16.66;100.00
18813;BME280;9534;51.140;6.296;2023-04-28T15:25:30;100008.63;;;16.66;100.00
18813;BME280;9534;51.140;6.296;2023-04-28T15:29:33;100012.72;;;16.63;100.00
18813;BME280;9534;51.140;6.296;2023-04-28T15:33:38;100017.09;;;16.59;100.00
18813;BME280;9534;51.140;6.296;2023-04-28T15:37:41;100027.88;;;16.56;100.00
18813;BME280;9534;51.140;6.296;2023-04-28T15:41:45;100035.78;;;16.47;100.00
18813;BME280;9534;51.140;6.296;2023-04-28T15:45:48;100047.97;;;16.25;100.00
18813;BME280;9534;51.140;6.296;2023-04-28T15:49:52;100036.19;;;16.34;100.00
18813;BME280;9534;51.140;6.296;2023-04-28T15:53:55;100035.31;;;16.29;100.00
18813;BME280;9534;51.140;6.296;2023-04-28T15:57:58;100039.75;;;16.30;100.00
18813;BME280;9534;51.140;6.296;2023-04-28T16:02:02;100047.03;;;16.14;100.00
18813;BME280;9534;51.140;6.296;2023-04-28T16:06:06;100038.53;;;15.95;100.00
18813;BME280;9534;51.140;6.296;2023-04-28T16:10:10;100025.78;;;15.89;100.00
18813;BME280;9534;51.140;6.296;2023-04-28T16:14:13;100045.84;;;15.84;100.00
18813;BME280;9534;51.140;6.296;2023-04-28T16:18:16;100069.28;;;15.82;100.00
18813;BME280;9534;51.140;6.296;2023-04-28T16:22:20;100067.38;;;15.61;100.00
18813;BME280;9534;51.140;6.296;2023-04-28T16:26:24;100082.50;;;15.20;100.00
18813;BME280;9534;51.140;6.296;2023-04-28T16:30:27;100088.50;;;15.34;100.00
18813;BME280;9534;51.140;6.296;2023-04-28T16:34:30;100089.63;;;15.54;100.00
18813;BME280;9534;51.140;6.296;2023-04-28T16:38:35;100085.44;;;15.52;100.00
18813;BME280;9534;51.140;6.296;2023-04-28T16:42:38;100078.84;;;15.53;100.00
18813;BME280;9534;51.140;6.296;2023-04-28T16:46:41;100079.34;;;15.50;100.00
18813;BME280;9534;51.140;6.296;2023-04-28T16:50:44;100073.31;;;15.53;100.00
18813;BME280;9534;51.140;6.296;2023-04-28T16:54:48;100070.56;;;15.53;100.00
18813;BME280;9534;51.140;6.296;2023-04-28T16:58:51;100079.44;;;15.55;100.00
18813;BME280;9534;51.140;6.296;2023-04-28T17:02:54;100078.09;;;15.57;100.00
18813;BME280;9534;51.140;6.296;2023-04-28T17:06:57;100083.28;;;15.54;100.00
18813;BME280;9534;51.140;6.296;2023-04-28T17:11:05;100090.81;;;15.42;100.00
18813;BME280;9534;51.140;6.296;2023-04-28T17:15:08;100097.44;;;15.41;100.00
18813;BME280;9534;51.140;6.296;2023-04-28T17:19:15;100105.03;;;15.34;100.00
18813;BME280;9534;51.140;6.296;2023-04-28T17:23:18;100091.09;;;15.24;100.00
18813;BME280;9534;51.140;6.296;2023-04-28T17:27:22;100106.06;;;15.28;100.00
18813;BME280;9534;51.140;6.296;2023-04-28T17:31:25;100113.09;;;15.19;100.00
18813;BME280;9534;51.140;6.296;2023-04-28T17:35:29;100119.19;;;15.21;100.00
18813;BME280;9534;51.140;6.296;2023-04-28T17:39:32;100119.41;;;15.19;100.00
18813;BME280;9534;51.140;6.296;2023-04-28T17:43:36;100130.63;;;15.13;100.00
18813;BME280;9534;51.140;6.296;2023-04-28T17:47:39;100136.13;;;15.13;100.00
18813;BME280;9534;51.140;6.296;2023-04-28T17:51:42;100139.97;;;15.12;100.00
18813;BME280;9534;51.140;6.296;2023-04-28T17:55:45;100127.72;;;15.03;100.00
18813;BME280;9534;51.140;6.296;2023-04-28T17:59:50;100139.31;;;15.05;100.00
18813;BME280;9534;51.140;6.296;2023-04-28T18:03:52;100134.88;;;15.04;100.00
18813;BME280;9534;51.140;6.296;2023-04-28T18:07:59;100134.81;;;14.99;100.00
18813;BME280;9534;51.140;6.296;2023-04-28T18:12:02;100146.31;;;14.96;100.00
18813;BME280;9534;51.140;6.296;2023-04-28T18:16:07;100145.81;;;14.99;100.00
18813;BME280;9534;51.140;6.296;2023-04-28T18:20:14;100141.41;;;14.98;100.00
18813;BME280;9534;51.140;6.296;2023-04-28T18:24:17;100157.03;;;14.92;100.00
18813;BME280;9534;51.140;6.296;2023-04-28T18:28:20;100149.59;;;14.93;100.00
18813;BME280;9534;51.140;6.296;2023-04-28T18:32:25;100160.50;;;14.88;100.00
18813;BME280;9534;51.140;6.296;2023-04-28T18:36:30;100167.69;;;14.89;100.00
18813;BME280;9534;51.140;6.296;2023-04-28T18:40:33;100157.53;;;14.89;100.00
18813;BME280;9534;51.140;6.296;2023-04-28T18:44:38;100164.63;;;14.85;100.00
18813;BME280;9534;51.140;6.296;2023-04-28T18:48:43;100168.47;;;14.84;100.00
18813;BME280;9534;51.140;6.296;2023-04-28T18:52:46;100166.19;;;14.82;100.00
18813;BME280;9534;51.140;6.296;2023-04-28T18:56:50;100165.34;;;14.81;100.00
18813;BME280;9534;51.140;6.296;2023-04-28T19:00:54;100157.09;;;14.81;100.00
18813;BME280;9534;51.140;6.296;2023-04-28T19:04:59;100168.00;;;14.76;100.00
18813;BME280;9534;51.140;6.296;2023-04-28T19:09:05;100176.44;;;14.70;100.00
18813;BME280;9534;51.140;6.296;2023-04-28T19:13:08;100185.03;;;14.73;100.00
18813;BME280;9534;51.140;6.296;2023-04-28T19:17:11;100181.19;;;14.74;100.00
18813;BME280;9534;51.140;6.296;2023-04-28T19:21:17;100197.03;;;14.67;100.00
18813;BME280;9534;51.140;6.296;2023-04-28T19:25:20;100206.38;;;14.66;100.00
18813;BME280;9534;51.140;6.296;2023-04-28T19:29:25;100209.53;;;14.58;100.00
18813;BME280;9534;51.140;6.296;2023-04-28T19:33:29;100229.13;;;14.45;100.00
18813;BME280;9534;51.140;6.296;2023-04-28T19:37:39;100236.97;;;14.25;100.00
18813;BME280;9534;51.140;6.296;2023-04-28T19:41:43;100256.09;;;14.20;100.00
18813;BME280;9534;51.140;6.296;2023-04-28T19:45:47;100252.25;;;14.21;100.00
18813;BME280;9534;51.140;6.296;2023-04-28T19:49:50;100257.75;;;14.21;100.00
18813;BME280;9534;51.140;6.296;2023-04-28T19:53:59;100261.09;;;14.23;100.00
18813;BME280;9534;51.140;6.296;2023-04-28T19:58:02;100262.56;;;14.26;100.00
18813;BME280;9534;51.140;6.296;2023-04-28T20:02:07;100257.75;;;14.21;100.00
18813;BME280;9534;51.140;6.296;2023-04-28T20:06:13;100259.31;;;14.17;100.00
18813;BME280;9534;51.140;6.296;2023-04-28T20:10:21;100264.34;;;14.20;100.00
18813;BME280;9534;51.140;6.296;2023-04-28T20:14:24;100273.19;;;14.22;100.00
18813;BME280;9534;51.140;6.296;2023-04-28T20:18:29;100281.75;;;13.98;100.00
18813;BME280;9534;51.140;6.296;2023-04-28T20:22:32;100292.50;;;13.76;100.00
18813;BME280;9534;51.140;6.296;2023-04-28T20:26:37;100302.56;;;13.59;100.00
18813;BME280;9534;51.140;6.296;2023-04-28T20:30:40;100308.13;;;13.42;100.00
18813;BME280;9534;51.140;6.296;2023-04-28T20:34:43;100328.91;;;13.26;100.00
18813;BME280;9534;51.140;6.296;2023-04-28T20:38:46;100334.59;;;13.13;100.00
18813;BME280;9534;51.140;6.296;2023-04-28T20:42:51;100342.31;;;13.05;100.00
18813;BME280;9534;51.140;6.296;2023-04-28T20:46:54;100348.69;;;12.99;100.00
18813;BME280;9534;51.140;6.296;2023-04-28T20:50:57;100358.94;;;12.92;100.00
18813;BME280;9534;51.140;6.296;2023-04-28T20:55:00;100367.41;;;12.90;100.00
18813;BME280;9534;51.140;6.296;2023-04-28T20:59:04;100380.31;;;12.90;100.00
18813;BME280;9534;51.140;6.296;2023-04-28T21:03:08;100370.38;;;12.89;100.00
18813;BME280;9534;51.140;6.296;2023-04-28T21:07:18;100375.06;;;12.88;100.00
18813;BME280;9534;51.140;6.296;2023-04-28T21:11:21;100378.16;;;12.92;100.00
18813;BME280;9534;51.140;6.296;2023-04-28T21:15:29;100379.22;;;12.91;100.00
18813;BME280;9534;51.140;6.296;2023-04-28T21:19:38;100382.69;;;12.86;100.00
18813;BME280;9534;51.140;6.296;2023-04-28T21:23:42;100391.16;;;12.85;100.00
18813;BME280;9534;51.140;6.296;2023-04-28T21:27:47;100397.34;;;12.80;100.00
18813;BME280;9534;51.140;6.296;2023-04-28T21:31:51;100393.63;;;12.75;100.00